sensor_id;sensor_type;location;lat;lon;timestamp;P1;durP1;ratioP1;P2;durP2;ratioP2
80963;SDS011;70425;59.322;13.486;2023-11-18T00:00:58;2.80;;;1.00;;
80963;SDS011;70425;59.322;13.486;2023-11-18T00:03:52;1.53;;;1.20;;
80963;SDS011;70425;59.322;13.486;2023-11-18T00:06:45;1.07;;;1.03;;
80963;SDS011;70425;59.322;13.486;2023-11-18T00:09:41;3.00;;;1.10;;
80963;SDS011;70425;59.322;13.486;2023-11-18T00:12:52;1.30;;;1.20;;
80963;SDS011;70425;59.322;13.486;2023-11-18T00:15:55;1.60;;;0.90;;
80963;SDS011;70425;59.322;13.486;2023-11-18T00:18:49;2.13;;;1.50;;
80963;SDS011;70425;59.322;13.486;2023-11-18T00:21:46;1.77;;;1.27;;
80963;SDS011;70425;59.322;13.486;2023-11-18T00:24:47;2.17;;;1.47;;
80963;SDS011;70425;59.322;13.486;2023-11-18T00:27:40;2.20;;;1.30;;
80963;SDS011;70425;59.322;13.486;2023-11-18T00:30:43;2.10;;;1.30;;
80963;SDS011;70425;59.322;13.486;2023-11-18T00:56:24;1.87;;;1.40;;
80963;SDS011;70425;59.322;13.486;2023-11-18T00:59:18;1.70;;;1.17;;
80963;SDS011;70425;59.322;13.486;2023-11-18T01:02:12;1.20;;;1.10;;
80963;SDS011;70425;59.322;13.486;2023-11-18T01:05:06;3.60;;;1.30;;
80963;SDS011;70425;59.322;13.486;2023-11-18T01:08:04;1.60;;;1.50;;
80963;SDS011;70425;59.322;13.486;2023-11-18T01:11:09;1.80;;;1.53;;
80963;SDS011;70425;59.322;13.486;2023-11-18T01:14:33;1.70;;;1.47;;
80963;SDS011;70425;59.322;13.486;2023-11-18T01:17:31;1.57;;;1.27;;
80963;SDS011;70425;59.322;13.486;2023-11-18T01:20:56;1.77;;;1.63;;
80963;SDS011;70425;59.322;13.486;2023-11-18T01:23:50;2.67;;;1.23;;
80963;SDS011;70425;59.322;13.486;2023-11-18T01:26:49;3.57;;;1.70;;
80963;SDS011;70425;59.322;13.486;2023-11-18T01:29:40;1.67;;;1.57;;
80963;SDS011;70425;59.322;13.486;2023-11-18T01:32:35;1.30;;;1.13;;
80963;SDS011;70425;59.322;13.486;2023-11-18T01:35:30;2.90;;;1.80;;
80963;SDS011;70425;59.322;13.486;2023-11-18T01:38:25;3.53;;;2.10;;
80963;SDS011;70425;59.322;13.486;2023-11-18T01:44:54;3.23;;;1.80;;
80963;SDS011;70425;59.322;13.486;2023-11-18T01:48:24;1.50;;;1.40;;
80963;SDS011;70425;59.322;13.486;2023-11-18T01:51:14;2.00;;;1.60;;
80963;SDS011;70425;59.322;13.486;2023-11-18T01:54:06;1.50;;;1.27;;
80963;SDS011;70425;59.322;13.486;2023-11-18T01:57:01;2.93;;;1.90;;
80963;SDS011;70425;59.322;13.486;2023-11-18T01:59:58;2.70;;;1.87;;
80963;SDS011;70425;59.322;13.486;2023-11-18T02:02:52;4.93;;;2.30;;
80963;SDS011;70425;59.322;13.486;2023-11-18T02:05:43;1.03;;;0.90;;
80963;SDS011;70425;59.322;13.486;2023-11-18T02:08:34;9.33;;;1.93;;
80963;SDS011;70425;59.322;13.486;2023-11-18T02:11:42;3.27;;;2.37;;
80963;SDS011;70425;59.322;13.486;2023-11-18T02:14:38;2.07;;;1.67;;
80963;SDS011;70425;59.322;13.486;2023-11-18T02:17:35;2.00;;;1.60;;
80963;SDS011;70425;59.322;13.486;2023-11-18T02:20:45;2.43;;;1.73;;
80963;SDS011;70425;59.322;13.486;2023-11-18T02:23:40;2.73;;;1.80;;
80963;SDS011;70425;59.322;13.486;2023-11-18T02:26:32;1.67;;;1.57;;
80963;SDS011;70425;59.322;13.486;2023-11-18T02:32:34;4.67;;;2.17;;
80963;SDS011;70425;59.322;13.486;2023-11-18T02:35:53;3.60;;;2.37;;
80963;SDS011;70425;59.322;13.486;2023-11-18T02:39:08;1.90;;;1.40;;
80963;SDS011;70425;59.322;13.486;2023-11-18T02:42:13;4.37;;;2.03;;
80963;SDS011;70425;59.322;13.486;2023-11-18T02:48:41;2.97;;;2.43;;
80963;SDS011;70425;59.322;13.486;2023-11-18T02:51:38;4.60;;;2.13;;
80963;SDS011;70425;59.322;13.486;2023-11-18T02:54:51;7.13;;;2.50;;
80963;SDS011;70425;59.322;13.486;2023-11-18T03:01:32;3.43;;;2.40;;
80963;SDS011;70425;59.322;13.486;2023-11-18T03:04:24;6.60;;;2.23;;
80963;SDS011;70425;59.322;13.486;2023-11-18T03:07:21;2.20;;;2.00;;
80963;SDS011;70425;59.322;13.486;2023-11-18T03:10:13;3.03;;;2.20;;
80963;SDS011;70425;59.322;13.486;2023-11-18T03:13:09;2.70;;;1.83;;
80963;SDS011;70425;59.322;13.486;2023-11-18T03:32:17;3.27;;;2.23;;
80963;SDS011;70425;59.322;13.486;2023-11-18T03:35:07;2.83;;;2.10;;
80963;SDS011;70425;59.322;13.486;2023-11-18T03:37:57;2.20;;;2.00;;
80963;SDS011;70425;59.322;13.486;2023-11-18T03:43:17;2.90;;;2.33;;
80963;SDS011;70425;59.322;13.486;2023-11-18T03:46:08;2.73;;;2.30;;
80963;SDS011;70425;59.322;13.486;2023-11-18T03:48:59;3.03;;;2.27;;
80963;SDS011;70425;59.322;13.486;2023-11-18T03:51:49;9.17;;;2.70;;
80963;SDS011;70425;59.322;13.486;2023-11-18T03:54:55;3.20;;;2.23;;
80963;SDS011;70425;59.322;13.486;2023-11-18T03:57:44;3.33;;;2.43;;
80963;SDS011;70425;59.322;13.486;2023-11-18T04:00:33;3.00;;;2.37;;
80963;SDS011;70425;59.322;13.486;2023-11-18T04:03:23;3.60;;;2.37;;
80963;SDS011;70425;59.322;13.486;2023-11-18T04:06:16;2.67;;;2.40;;
80963;SDS011;70425;59.322;13.486;2023-11-18T04:09:12;2.60;;;2.20;;
80963;SDS011;70425;59.322;13.486;2023-11-18T04:12:05;4.83;;;2.93;;
80963;SDS011;70425;59.322;13.486;2023-11-18T04:14:57;3.63;;;2.30;;
80963;SDS011;70425;59.322;13.486;2023-11-18T04:18:09;2.47;;;2.23;;
80963;SDS011;70425;59.322;13.486;2023-11-18T04:21:00;2.53;;;2.10;;
80963;SDS011;70425;59.322;13.486;2023-11-18T04:23:51;3.03;;;2.20;;
80963;SDS011;70425;59.322;13.486;2023-11-18T04:26:45;4.67;;;2.40;;
80963;SDS011;70425;59.322;13.486;2023-11-18T04:29:36;1.80;;;1.70;;
80963;SDS011;70425;59.322;13.486;2023-11-18T04:36:46;3.53;;;2.60;;
80963;SDS011;70425;59.322;13.486;2023-11-18T04:39:37;3.13;;;1.70;;
80963;SDS011;70425;59.322;13.486;2023-11-18T04:42:26;2.70;;;1.87;;
80963;SDS011;70425;59.322;13.486;2023-11-18T04:45:27;4.07;;;2.13;;
80963;SDS011;70425;59.322;13.486;2023-11-18T04:48:18;2.40;;;2.10;;
80963;SDS011;70425;59.322;13.486;2023-11-18T05:26:48;3.07;;;2.27;;
80963;SDS011;70425;59.322;13.486;2023-11-18T05:29:38;3.17;;;2.37;;
80963;SDS011;70425;59.322;13.486;2023-11-18T05:32:31;3.03;;;2.10;;
80963;SDS011;70425;59.322;13.486;2023-11-18T05:35:28;6.57;;;2.50;;
80963;SDS011;70425;59.322;13.486;2023-11-18T05:38:20;2.47;;;2.03;;
80963;SDS011;70425;59.322;13.486;2023-11-18T05:41:31;4.73;;;1.70;;
80963;SDS011;70425;59.322;13.486;2023-11-18T05:48:37;3.73;;;2.50;;
80963;SDS011;70425;59.322;13.486;2023-11-18T05:51:29;4.17;;;2.00;;
80963;SDS011;70425;59.322;13.486;2023-11-18T05:54:20;3.70;;;2.57;;
80963;SDS011;70425;59.322;13.486;2023-11-18T06:26:21;2.00;;;1.80;;
80963;SDS011;70425;59.322;13.486;2023-11-18T06:40:12;6.93;;;3.87;;
80963;SDS011;70425;59.322;13.486;2023-11-18T06:57:53;3.60;;;2.23;;
80963;SDS011;70425;59.322;13.486;2023-11-18T07:17:52;20.07;;;5.73;;
80963;SDS011;70425;59.322;13.486;2023-11-18T07:20:49;2.60;;;2.13;;
80963;SDS011;70425;59.322;13.486;2023-11-18T07:23:39;2.73;;;1.30;;
80963;SDS011;70425;59.322;13.486;2023-11-18T07:40:46;3.87;;;2.90;;
80963;SDS011;70425;59.322;13.486;2023-11-18T08:38:09;6.60;;;2.87;;
80963;SDS011;70425;59.322;13.486;2023-11-18T08:40:59;2.73;;;2.00;;
80963;SDS011;70425;59.322;13.486;2023-11-18T08:43:50;5.37;;;2.40;;
80963;SDS011;70425;59.322;13.486;2023-11-18T08:46:40;9.37;;;6.03;;
80963;SDS011;70425;59.322;13.486;2023-11-18T08:49:29;3.77;;;2.47;;
80963;SDS011;70425;59.322;13.486;2023-11-18T08:52:20;2.33;;;2.03;;
80963;SDS011;70425;59.322;13.486;2023-11-18T09:10:35;4.60;;;2.87;;
80963;SDS011;70425;59.322;13.486;2023-11-18T09:13:25;3.37;;;2.67;;
80963;SDS011;70425;59.322;13.486;2023-11-18T09:20:10;3.53;;;2.70;;
80963;SDS011;70425;59.322;13.486;2023-11-18T09:23:00;4.50;;;3.20;;
80963;SDS011;70425;59.322;13.486;2023-11-18T09:25:50;4.03;;;2.80;;
80963;SDS011;70425;59.322;13.486;2023-11-18T09:28:40;4.43;;;2.17;;
80963;SDS011;70425;59.322;13.486;2023-11-18T09:31:30;2.30;;;1.83;;
80963;SDS011;70425;59.322;13.486;2023-11-18T09:34:20;7.70;;;2.23;;
80963;SDS011;70425;59.322;13.486;2023-11-18T09:37:14;2.47;;;2.07;;
80963;SDS011;70425;59.322;13.486;2023-11-18T09:40:07;5.63;;;2.27;;
80963;SDS011;70425;59.322;13.486;2023-11-18T09:42:58;4.70;;;2.50;;
80963;SDS011;70425;59.322;13.486;2023-11-18T09:49:37;2.87;;;2.43;;
80963;SDS011;70425;59.322;13.486;2023-11-18T11:57:11;9.07;;;5.33;;
80963;SDS011;70425;59.322;13.486;2023-11-18T12:15:47;59.37;;;16.60;;
80963;SDS011;70425;59.322;13.486;2023-11-18T12:18:38;7.20;;;3.43;;
80963;SDS011;70425;59.322;13.486;2023-11-18T12:24:42;5.03;;;3.17;;
80963;SDS011;70425;59.322;13.486;2023-11-18T12:27:41;11.80;;;3.27;;
80963;SDS011;70425;59.322;13.486;2023-11-18T12:30:38;6.13;;;3.03;;
80963;SDS011;70425;59.322;13.486;2023-11-18T14:50:01;12.23;;;6.57;;
80963;SDS011;70425;59.322;13.486;2023-11-18T15:26:21;5.40;;;3.07;;
80963;SDS011;70425;59.322;13.486;2023-11-18T15:29:10;14.83;;;6.40;;
80963;SDS011;70425;59.322;13.486;2023-11-18T15:32:01;4.33;;;2.43;;
80963;SDS011;70425;59.322;13.486;2023-11-18T15:48:47;14.23;;;7.17;;
80963;SDS011;70425;59.322;13.486;2023-11-18T15:52:07;18.47;;;7.00;;
80963;SDS011;70425;59.322;13.486;2023-11-18T15:54:59;18.73;;;6.90;;
80963;SDS011;70425;59.322;13.486;2023-11-18T15:57:52;16.63;;;6.53;;
80963;SDS011;70425;59.322;13.486;2023-11-18T16:00:41;10.30;;;5.20;;
80963;SDS011;70425;59.322;13.486;2023-11-18T16:03:30;9.13;;;4.97;;
80963;SDS011;70425;59.322;13.486;2023-11-18T16:06:19;11.20;;;5.00;;
80963;SDS011;70425;59.322;13.486;2023-11-18T16:09:10;9.50;;;4.70;;
80963;SDS011;70425;59.322;13.486;2023-11-18T16:11:59;9.87;;;4.03;;
80963;SDS011;70425;59.322;13.486;2023-11-18T16:14:49;8.27;;;4.17;;
80963;SDS011;70425;59.322;13.486;2023-11-18T16:17:40;11.13;;;5.60;;
80963;SDS011;70425;59.322;13.486;2023-11-18T16:20:31;9.30;;;4.27;;
80963;SDS011;70425;59.322;13.486;2023-11-18T16:23:20;5.87;;;2.90;;
80963;SDS011;70425;59.322;13.486;2023-11-18T16:26:10;9.73;;;5.03;;
80963;SDS011;70425;59.322;13.486;2023-11-18T16:28:59;9.27;;;3.63;;
80963;SDS011;70425;59.322;13.486;2023-11-18T16:31:49;14.90;;;5.77;;
80963;SDS011;70425;59.322;13.486;2023-11-18T17:05:11;15.47;;;7.00;;
80963;SDS011;70425;59.322;13.486;2023-11-18T17:18:20;25.37;;;8.53;;
80963;SDS011;70425;59.322;13.486;2023-11-18T17:21:11;17.90;;;8.20;;
80963;SDS011;70425;59.322;13.486;2023-11-18T17:24:00;15.63;;;6.93;;
80963;SDS011;70425;59.322;13.486;2023-11-18T17:26:50;21.67;;;8.10;;
80963;SDS011;70425;59.322;13.486;2023-11-18T17:29:40;20.37;;;8.97;;
80963;SDS011;70425;59.322;13.486;2023-11-18T17:32:29;22.37;;;9.23;;
80963;SDS011;70425;59.322;13.486;2023-11-18T17:35:17;18.07;;;8.27;;
80963;SDS011;70425;59.322;13.486;2023-11-18T17:38:06;16.27;;;8.17;;
80963;SDS011;70425;59.322;13.486;2023-11-18T17:40:55;22.03;;;8.77;;
80963;SDS011;70425;59.322;13.486;2023-11-18T17:57:42;19.00;;;9.03;;
80963;SDS011;70425;59.322;13.486;2023-11-18T18:15:45;16.53;;;8.80;;
80963;SDS011;70425;59.322;13.486;2023-11-18T18:29:30;17.63;;;9.27;;
80963;SDS011;70425;59.322;13.486;2023-11-18T18:46:58;18.70;;;9.67;;
80963;SDS011;70425;59.322;13.486;2023-11-18T18:49:49;20.43;;;7.67;;
80963;SDS011;70425;59.322;13.486;2023-11-18T19:31:46;21.93;;;10.17;;
80963;SDS011;70425;59.322;13.486;2023-11-18T19:34:35;25.77;;;9.43;;
80963;SDS011;70425;59.322;13.486;2023-11-18T19:37:24;27.37;;;8.83;;
80963;SDS011;70425;59.322;13.486;2023-11-18T19:40:13;25.13;;;8.77;;
80963;SDS011;70425;59.322;13.486;2023-11-18T19:43:02;29.80;;;9.67;;
80963;SDS011;70425;59.322;13.486;2023-11-18T19:45:52;24.60;;;9.90;;
80963;SDS011;70425;59.322;13.486;2023-11-18T19:48:41;22.20;;;9.70;;
80963;SDS011;70425;59.322;13.486;2023-11-18T19:51:30;24.20;;;9.60;;
80963;SDS011;70425;59.322;13.486;2023-11-18T19:54:20;26.60;;;10.87;;
80963;SDS011;70425;59.322;13.486;2023-11-18T19:57:08;21.47;;;9.30;;
80963;SDS011;70425;59.322;13.486;2023-11-18T19:59:57;25.33;;;8.53;;
80963;SDS011;70425;59.322;13.486;2023-11-18T20:02:48;28.13;;;8.57;;
80963;SDS011;70425;59.322;13.486;2023-11-18T20:05:37;23.20;;;8.73;;
80963;SDS011;70425;59.322;13.486;2023-11-18T20:08:25;32.57;;;12.63;;
80963;SDS011;70425;59.322;13.486;2023-11-18T20:35:41;21.53;;;9.63;;
80963;SDS011;70425;59.322;13.486;2023-11-18T20:41:11;16.47;;;6.03;;
80963;SDS011;70425;59.322;13.486;2023-11-18T20:44:01;6.47;;;3.53;;
80963;SDS011;70425;59.322;13.486;2023-11-18T21:02:19;15.10;;;5.30;;
80963;SDS011;70425;59.322;13.486;2023-11-18T21:08:01;10.67;;;4.40;;
80963;SDS011;70425;59.322;13.486;2023-11-18T21:10:52;8.90;;;3.63;;
80963;SDS011;70425;59.322;13.486;2023-11-18T21:13:40;9.17;;;3.70;;
80963;SDS011;70425;59.322;13.486;2023-11-18T21:16:29;9.37;;;3.83;;
80963;SDS011;70425;59.322;13.486;2023-11-18T21:19:19;20.40;;;5.63;;
80963;SDS011;70425;59.322;13.486;2023-11-18T21:22:09;14.13;;;4.93;;
80963;SDS011;70425;59.322;13.486;2023-11-18T21:24:59;15.40;;;5.03;;
80963;SDS011;70425;59.322;13.486;2023-11-18T21:27:49;15.37;;;6.07;;
80963;SDS011;70425;59.322;13.486;2023-11-18T21:30:38;8.07;;;3.13;;
80963;SDS011;70425;59.322;13.486;2023-11-18T21:33:27;15.17;;;4.93;;
80963;SDS011;70425;59.322;13.486;2023-11-18T21:39:05;19.10;;;5.53;;
80963;SDS011;70425;59.322;13.486;2023-11-18T21:41:57;10.90;;;4.10;;
80963;SDS011;70425;59.322;13.486;2023-11-18T21:48:31;8.77;;;3.57;;
80963;SDS011;70425;59.322;13.486;2023-11-18T21:51:20;23.00;;;4.87;;
80963;SDS011;70425;59.322;13.486;2023-11-18T22:29:42;4.70;;;2.33;;
80963;SDS011;70425;59.322;13.486;2023-11-18T22:52:52;16.23;;;5.23;;
80963;SDS011;70425;59.322;13.486;2023-11-18T22:55:43;13.87;;;5.10;;
80963;SDS011;70425;59.322;13.486;2023-11-18T22:58:33;6.07;;;3.30;;
80963;SDS011;70425;59.322;13.486;2023-11-18T23:01:24;11.77;;;4.80;;
80963;SDS011;70425;59.322;13.486;2023-11-18T23:04:13;12.43;;;5.27;;
80963;SDS011;70425;59.322;13.486;2023-11-18T23:07:04;10.40;;;4.63;;
80963;SDS011;70425;59.322;13.486;2023-11-18T23:09:53;16.27;;;4.13;;
80963;SDS011;70425;59.322;13.486;2023-11-18T23:12:43;11.17;;;3.90;;
80963;SDS011;70425;59.322;13.486;2023-11-18T23:15:32;10.00;;;4.10;;
80963;SDS011;70425;59.322;13.486;2023-11-18T23:21:45;13.43;;;4.83;;
80963;SDS011;70425;59.322;13.486;2023-11-18T23:24:36;12.93;;;4.43;;
80963;SDS011;70425;59.322;13.486;2023-11-18T23:27:24;18.47;;;5.03;;
80963;SDS011;70425;59.322;13.486;2023-11-18T23:30:17;8.63;;;3.10;;
80963;SDS011;70425;59.322;13.486;2023-11-18T23:33:06;10.57;;;4.00;;
80963;SDS011;70425;59.322;13.486;2023-11-18T23:52:58;14.63;;;4.97;;
80963;SDS011;70425;59.322;13.486;2023-11-18T23:55:48;6.73;;;2.90;;
